Anaktuvuk, Alaska
Current Conditions -  °F | °C
As of 9:16 PM on Tuesday 21 Oct 2014 (Local Time) from PAKP Reporting Station
Overcast Overcast  
Wind Chill:   Ceiling: 3500
Heat Index: 19°   Visibility: 10mi
Dew Point: 10°   Wind: 8mph
Humidity: 68%   Direction: 60°ENE
Pressure: 29.58"   Gusts: NA
Location:  68.565°N, 152.085°W
Report Text: PAKP 220516Z AUTO 06007KT 10SM BKN035 OVC080 M07/M12 A2958 RMK AO1
Loading
Personal Weather Stations






























Interactive Weather Map
Tropical Storm Tracking
New forecast layout! Learn more

10-Day Weather Forecast

Advertisements
Track Severe Weather on mobile